createdAt,value
2018-03-11T00:02:10.117Z,7.40
2018-03-11T00:04:37.584Z,7.40
2018-03-11T00:07:05.054Z,7.40
2018-03-11T00:09:32.504Z,7.30
2018-03-11T00:12:06.903Z,7.30
2018-03-11T00:14:34.369Z,7.30
2018-03-11T00:17:01.832Z,7.30
2018-03-11T00:19:29.284Z,7.30
2018-03-11T00:21:56.749Z,7.20
2018-03-11T00:24:24.195Z,7.30
2018-03-11T00:26:51.653Z,7.30
2018-03-11T00:29:19.175Z,7.30
2018-03-11T00:31:46.564Z,7.30
2018-03-11T00:34:14.009Z,7.20
2018-03-11T00:36:41.468Z,7.30
2018-03-11T00:39:08.921Z,7.30
2018-03-11T00:41:36.381Z,7.20
2018-03-11T00:44:03.841Z,7.20
2018-03-11T00:46:31.289Z,7.20
2018-03-11T00:48:59.077Z,7.20
2018-03-11T00:51:26.529Z,7.20
2018-03-11T00:53:54.007Z,7.20
2018-03-11T00:56:21.461Z,7.10
2018-03-11T00:58:48.912Z,7.20
2018-03-11T01:01:16.379Z,7.20
2018-03-11T01:03:43.845Z,7.10
2018-03-11T01:06:11.326Z,7.20
2018-03-11T01:08:39.549Z,7.10
2018-03-11T01:11:07.832Z,7.10
2018-03-11T01:13:35.292Z,7.10
2018-03-11T01:16:02.745Z,7.10
2018-03-11T01:18:30.201Z,7.10
2018-03-11T01:20:57.657Z,7.10
2018-03-11T01:23:25.106Z,7.10
2018-03-11T01:25:52.564Z,7.10
2018-03-11T01:28:20.005Z,7.10
2018-03-11T01:30:47.456Z,7.20
2018-03-11T01:33:15.054Z,7.10
2018-03-11T01:35:42.514Z,7.10
2018-03-11T01:38:09.964Z,7.10
2018-03-11T01:40:37.404Z,7.10
2018-03-11T01:43:05.287Z,7.10
2018-03-11T01:45:32.734Z,7.10
2018-03-11T01:48:00.189Z,7.10
2018-03-11T01:50:27.642Z,7.10
2018-03-11T01:53:07.014Z,7.10
2018-03-11T01:55:34.464Z,7.00
2018-03-11T01:58:01.925Z,7.00
2018-03-11T02:00:29.372Z,7.00
2018-03-11T02:02:56.841Z,7.00
2018-03-11T02:05:26.025Z,7.00
2018-03-11T02:07:53.472Z,6.90
2018-03-11T02:10:20.920Z,7.00
2018-03-11T02:12:48.383Z,6.90
2018-03-11T02:15:15.824Z,6.90
2018-03-11T02:17:43.279Z,7.00
2018-03-11T02:20:10.740Z,7.00
2018-03-11T02:22:38.192Z,6.90
2018-03-11T02:25:05.635Z,6.90
2018-03-11T02:27:33.855Z,6.90
2018-03-11T02:30:01.333Z,6.90
2018-03-11T02:32:28.787Z,6.90
2018-03-11T02:34:56.237Z,6.90
2018-03-11T02:37:23.696Z,6.90
2018-03-11T02:39:51.144Z,6.90
2018-03-11T02:42:18.604Z,6.90
2018-03-11T02:44:46.046Z,6.90
2018-03-11T02:47:13.517Z,6.90
2018-03-11T02:49:41.076Z,6.90
2018-03-11T02:52:08.532Z,6.90
2018-03-11T02:54:35.988Z,6.80
2018-03-11T02:57:03.449Z,6.80
2018-03-11T02:59:30.906Z,6.80
2018-03-11T03:01:58.361Z,6.80
2018-03-11T03:04:25.820Z,6.70
2018-03-11T03:06:53.280Z,6.70
2018-03-11T03:09:20.995Z,6.60
2018-03-11T03:11:49.068Z,6.60
2018-03-11T03:14:16.532Z,6.50
2018-03-11T03:16:44.744Z,6.50
2018-03-11T03:19:12.192Z,6.50
2018-03-11T03:21:39.640Z,6.40
2018-03-11T03:24:07.116Z,6.40
2018-03-11T03:26:34.561Z,6.40
2018-03-11T03:29:02.026Z,6.30
2018-03-11T03:31:29.480Z,6.30
2018-03-11T03:33:57.952Z,6.20
2018-03-11T03:36:25.421Z,6.20
2018-03-11T03:38:52.887Z,6.20
2018-03-11T03:41:20.348Z,6.20
2018-03-11T03:43:47.808Z,6.20
2018-03-11T03:46:15.380Z,6.20
2018-03-11T03:48:42.855Z,6.20
2018-03-11T03:51:11.068Z,6.20
2018-03-11T03:53:38.526Z,6.20
2018-03-11T03:56:05.989Z,6.10
2018-03-11T03:58:33.475Z,6.10
2018-03-11T04:01:00.926Z,6.10
2018-03-11T04:03:28.385Z,6.00
2018-03-11T04:05:55.832Z,6.00
2018-03-11T04:08:23.284Z,6.00
2018-03-11T04:10:50.733Z,5.90
2018-03-11T04:13:18.195Z,5.90
2018-03-11T04:15:45.640Z,5.90
2018-03-11T04:18:13.093Z,5.90
2018-03-11T04:20:40.591Z,5.90
2018-03-11T04:23:08.807Z,5.80
2018-03-11T04:25:36.327Z,5.90
2018-03-11T04:28:03.773Z,5.80
2018-03-11T04:30:31.235Z,5.80
2018-03-11T04:32:58.681Z,5.80
2018-03-11T04:35:26.144Z,5.70
2018-03-11T04:37:53.593Z,5.70
2018-03-11T04:40:21.054Z,5.70
2018-03-11T04:42:48.492Z,5.70
2018-03-11T04:45:15.964Z,5.60
2018-03-11T04:47:43.409Z,5.60
2018-03-11T04:50:10.866Z,5.60
2018-03-11T04:52:38.305Z,5.60
2018-03-11T04:55:20.235Z,5.60
2018-03-11T04:57:47.684Z,5.50
2018-03-11T05:00:15.136Z,5.50
2018-03-11T05:02:42.583Z,5.50
2018-03-11T05:05:10.036Z,5.50
2018-03-11T05:07:37.485Z,5.50
2018-03-11T05:10:04.946Z,5.50
2018-03-11T05:12:32.389Z,5.40
2018-03-11T05:14:59.848Z,5.40
2018-03-11T05:17:27.295Z,5.40
2018-03-11T05:19:55.512Z,5.30
2018-03-11T05:22:22.960Z,5.40
2018-03-11T05:24:50.513Z,5.30
2018-03-11T05:27:17.951Z,5.30
2018-03-11T05:29:46.169Z,5.30
2018-03-11T05:32:13.641Z,5.30
2018-03-11T05:34:41.092Z,5.30
2018-03-11T05:37:08.652Z,5.20
2018-03-11T05:39:36.119Z,5.10
2018-03-11T05:42:03.680Z,5.10
2018-03-11T05:44:31.892Z,5.10
2018-03-11T05:46:59.352Z,5.10
2018-03-11T05:49:26.812Z,5.10
2018-03-11T05:51:54.311Z,5.10
2018-03-11T05:54:21.759Z,5.00
2018-03-11T05:56:49.236Z,5.00
2018-03-11T05:59:16.685Z,5.00
2018-03-11T06:01:44.139Z,5.00
2018-03-11T06:04:11.589Z,5.10
2018-03-11T06:06:39.038Z,5.00
2018-03-11T06:09:06.496Z,5.00
2018-03-11T06:11:33.960Z,5.00
2018-03-11T06:14:01.401Z,5.00
2018-03-11T06:16:28.853Z,5.10
2018-03-11T06:18:56.310Z,5.10
2018-03-11T06:21:23.767Z,5.00
2018-03-11T06:23:51.212Z,5.00
2018-03-11T06:26:18.675Z,5.00
2018-03-11T06:28:53.785Z,5.10
2018-03-11T06:31:22.043Z,5.20
2018-03-11T06:33:49.474Z,5.20
2018-03-11T06:36:16.936Z,5.20
2018-03-11T06:38:44.389Z,5.20
2018-03-11T06:41:11.849Z,5.30
2018-03-11T06:43:39.300Z,5.40
2018-03-11T06:46:24.067Z,5.40
2018-03-11T06:48:51.522Z,5.40
2018-03-11T06:51:18.964Z,5.50
2018-03-11T06:53:46.448Z,5.60
2018-03-11T06:56:13.910Z,5.60
2018-03-11T06:58:41.780Z,5.50
2018-03-11T07:01:09.231Z,5.60
2018-03-11T07:03:36.676Z,5.60
2018-03-11T07:06:04.124Z,5.60
2018-03-11T07:08:31.605Z,5.60
2018-03-11T07:10:59.057Z,5.70
2018-03-11T07:13:26.515Z,5.70
2018-03-11T07:15:53.961Z,5.80
2018-03-11T07:18:21.409Z,5.90
2018-03-11T07:20:48.853Z,5.90
2018-03-11T07:23:17.765Z,6.10
2018-03-11T07:25:45.209Z,6.10
2018-03-11T07:28:12.682Z,6.20
2018-03-11T07:30:40.124Z,6.30
2018-03-11T07:33:07.577Z,6.30
2018-03-11T07:35:35.029Z,6.40
2018-03-11T07:38:02.489Z,6.50
2018-03-11T07:40:29.963Z,6.60
2018-03-11T07:42:57.413Z,6.70
2018-03-11T07:45:25.801Z,6.70
2018-03-11T07:47:53.250Z,6.90
2018-03-11T07:50:20.706Z,6.90
2018-03-11T07:52:48.197Z,7.00
2018-03-11T07:55:15.668Z,7.10
2018-03-11T07:57:43.915Z,7.30
2018-03-11T08:00:11.360Z,7.30
2018-03-11T08:02:38.812Z,7.40
2018-03-11T08:05:06.300Z,7.60
2018-03-11T08:07:33.857Z,7.70
2018-03-11T08:10:01.313Z,7.90
2018-03-11T08:12:28.756Z,8.10
2018-03-11T08:14:56.217Z,8.40
2018-03-11T08:17:23.751Z,8.50
2018-03-11T08:19:51.203Z,8.70
2018-03-11T08:22:18.656Z,8.80
2018-03-11T08:24:46.114Z,9.00
2018-03-11T08:27:13.556Z,9.10
2018-03-11T08:29:41.008Z,9.10
2018-03-11T08:32:09.224Z,9.10
2018-03-11T08:34:36.769Z,9.10
2018-03-11T08:37:04.197Z,9.10
2018-03-11T08:39:32.424Z,9.20
2018-03-11T08:41:59.955Z,9.10
2018-03-11T08:44:27.453Z,9.20
2018-03-11T08:46:54.901Z,9.30
2018-03-11T08:49:22.359Z,9.40
2018-03-11T08:51:49.797Z,9.50
2018-03-11T08:54:17.266Z,9.50
2018-03-11T08:56:44.703Z,9.60
2018-03-11T08:59:12.147Z,9.60
2018-03-11T09:01:39.608Z,9.60
2018-03-11T09:04:07.068Z,9.60
2018-03-11T09:06:38.311Z,9.70
2018-03-11T09:09:05.755Z,9.70
2018-03-11T09:11:33.977Z,9.70
2018-03-11T09:14:01.561Z,9.70
2018-03-11T09:16:29.072Z,9.70
2018-03-11T09:18:56.525Z,9.70
2018-03-11T09:21:23.985Z,9.70
2018-03-11T09:23:51.429Z,9.70
2018-03-11T09:26:18.942Z,9.70
2018-03-11T09:28:46.380Z,9.60
2018-03-11T09:31:13.855Z,9.60
2018-03-11T09:33:42.221Z,9.70
2018-03-11T09:36:09.675Z,9.80
2018-03-11T09:38:37.136Z,9.90
2018-03-11T09:41:04.705Z,10.00
2018-03-11T09:43:32.148Z,10.10
2018-03-11T09:45:59.604Z,10.30
2018-03-11T09:48:27.049Z,10.50
2018-03-11T09:50:54.516Z,10.70
2018-03-11T09:53:21.948Z,10.80
2018-03-11T09:55:49.410Z,10.90
2018-03-11T09:58:16.853Z,11.10
2018-03-11T10:00:44.322Z,11.10
2018-03-11T10:03:11.769Z,11.20
2018-03-11T10:05:39.233Z,11.20
2018-03-11T10:08:06.680Z,11.30
2018-03-11T10:10:34.159Z,11.40
2018-03-11T10:13:01.592Z,11.40
2018-03-11T10:15:29.041Z,11.30
2018-03-11T10:17:57.256Z,11.40
2018-03-11T10:20:24.735Z,11.40
2018-03-11T10:22:52.185Z,11.60
2018-03-11T10:25:19.649Z,11.60
2018-03-11T10:27:47.100Z,11.50
2018-03-11T10:30:14.546Z,11.50
2018-03-11T10:32:42.915Z,11.50
2018-03-11T10:35:10.390Z,11.50
2018-03-11T10:37:37.845Z,11.40
2018-03-11T10:40:05.292Z,11.40
2018-03-11T10:42:32.749Z,11.40
2018-03-11T10:45:00.201Z,11.40
2018-03-11T10:47:27.673Z,11.50
2018-03-11T10:49:55.137Z,11.40
2018-03-11T10:52:22.581Z,11.50
2018-03-11T10:54:50.801Z,11.50
2018-03-11T10:57:19.076Z,11.60
2018-03-11T10:59:46.540Z,11.50
2018-03-11T11:02:18.400Z,11.60
2018-03-11T11:04:51.529Z,11.60
2018-03-11T11:07:18.986Z,11.70
2018-03-11T11:09:46.444Z,11.90
2018-03-11T11:12:19.957Z,12.00
2018-03-11T11:14:47.409Z,12.10
2018-03-11T11:17:14.876Z,12.30
2018-03-11T11:19:42.328Z,12.30
2018-03-11T11:22:09.772Z,12.40
2018-03-11T11:24:37.221Z,12.50
2018-03-11T11:27:04.677Z,12.60
2018-03-11T11:29:32.176Z,12.60
2018-03-11T11:32:00.420Z,12.90
2018-03-11T11:34:27.868Z,12.90
2018-03-11T11:36:55.316Z,13.00
2018-03-11T11:39:22.764Z,13.30
2018-03-11T11:41:50.208Z,13.50
2018-03-11T11:44:18.438Z,13.80
2018-03-11T11:46:45.893Z,13.80
2018-03-11T11:49:13.344Z,13.90
2018-03-11T11:51:40.791Z,13.90
2018-03-11T11:54:08.256Z,13.90
2018-03-11T11:56:35.708Z,13.90
2018-03-11T11:59:03.164Z,14.00
2018-03-11T12:01:30.617Z,14.30
2018-03-11T12:03:58.082Z,14.50
2018-03-11T12:06:25.527Z,14.50
2018-03-11T12:08:52.976Z,14.50
2018-03-11T12:11:20.420Z,14.50
2018-03-11T12:13:48.664Z,14.40
2018-03-11T12:16:17.611Z,14.40
2018-03-11T12:18:45.073Z,14.40
2018-03-11T12:21:12.539Z,14.30
2018-03-11T12:23:40.005Z,14.20
2018-03-11T12:26:07.450Z,14.10
2018-03-11T12:28:34.897Z,14.00
2018-03-11T12:31:02.354Z,14.10
2018-03-11T12:33:29.796Z,14.10
2018-03-11T12:35:57.240Z,14.20
2018-03-11T12:38:25.464Z,14.30
2018-03-11T12:40:52.925Z,14.20
2018-03-11T12:43:20.372Z,14.20
2018-03-11T12:45:47.827Z,14.10
2018-03-11T12:48:15.282Z,14.10
2018-03-11T12:50:42.734Z,14.00
2018-03-11T12:53:10.186Z,13.90
2018-03-11T12:55:37.640Z,13.80
2018-03-11T12:58:05.137Z,13.70
2018-03-11T13:00:33.298Z,13.60
2018-03-11T13:03:00.751Z,13.60
2018-03-11T13:05:28.333Z,13.60
2018-03-11T13:07:55.790Z,13.60
2018-03-11T13:10:23.248Z,13.60
2018-03-11T13:12:50.705Z,13.40
2018-03-11T13:15:18.163Z,13.30
2018-03-11T13:17:45.615Z,13.20
2018-03-11T13:20:25.004Z,13.10
2018-03-11T13:22:52.508Z,13.10
2018-03-11T13:25:20.179Z,13.10
2018-03-11T13:27:59.565Z,13.10
2018-03-11T13:30:27.016Z,13.00
2018-03-11T13:33:06.234Z,13.00
2018-03-11T13:35:34.448Z,12.80
2018-03-11T13:51:41.940Z,12.40
2018-03-11T13:54:09.388Z,12.30
2018-03-11T13:56:36.841Z,12.20
2018-03-11T13:59:04.289Z,12.20
2018-03-11T14:01:32.052Z,12.10
2018-03-11T14:03:59.503Z,12.00
2018-03-11T14:06:26.958Z,12.00
2018-03-11T14:08:54.433Z,12.00
2018-03-11T14:11:21.880Z,12.00
2018-03-11T14:13:49.334Z,11.90
2018-03-11T14:16:16.792Z,11.80
2018-03-11T14:18:44.260Z,11.70
2018-03-11T14:21:11.705Z,11.60
2018-03-11T14:23:40.064Z,11.50
2018-03-11T14:26:08.284Z,11.30
2018-03-11T14:28:35.755Z,11.30
2018-03-11T14:31:03.238Z,11.30
2018-03-11T14:33:31.456Z,11.20
2018-03-11T14:35:59.009Z,11.20
2018-03-11T14:38:26.451Z,11.20
2018-03-11T14:40:54.681Z,11.00
2018-03-11T14:43:22.138Z,11.00
2018-03-11T14:45:49.588Z,10.90
2018-03-11T14:48:17.032Z,10.90
2018-03-11T14:50:44.521Z,10.90
2018-03-11T14:53:11.959Z,10.90
2018-03-11T14:55:39.416Z,10.90
2018-03-11T14:58:06.865Z,10.90
2018-03-11T15:00:34.320Z,10.90
2018-03-11T15:03:01.764Z,10.80
2018-03-11T15:05:29.211Z,10.80
2018-03-11T15:07:56.676Z,10.80
2018-03-11T15:10:24.130Z,10.80
2018-03-11T15:12:51.576Z,10.80
2018-03-11T15:15:19.045Z,10.80
2018-03-11T15:17:46.495Z,10.90
2018-03-11T15:20:13.954Z,10.90
2018-03-11T15:22:41.426Z,10.80
2018-03-11T15:25:08.868Z,10.80
2018-03-11T15:27:36.336Z,10.70
2018-03-11T15:30:03.784Z,10.70
2018-03-11T15:32:31.236Z,10.70
2018-03-11T15:34:58.698Z,10.70
2018-03-11T15:37:32.750Z,10.70
2018-03-11T15:40:00.195Z,10.70
2018-03-11T15:42:27.652Z,10.70
2018-03-11T15:44:55.096Z,10.70
2018-03-11T15:47:22.555Z,10.70
2018-03-11T15:49:50.043Z,10.70
2018-03-11T15:52:17.514Z,10.70
2018-03-11T15:54:44.972Z,10.70
2018-03-11T15:57:13.196Z,10.70
2018-03-11T15:59:40.638Z,10.70
2018-03-11T16:02:08.095Z,10.70
2018-03-11T16:04:35.544Z,10.60
2018-03-11T16:07:02.997Z,10.60
2018-03-11T16:09:31.217Z,10.50
2018-03-11T16:11:58.684Z,10.50
2018-03-11T16:14:26.151Z,10.50
2018-03-11T16:16:54.384Z,10.50
2018-03-11T16:19:21.837Z,10.40
2018-03-11T16:21:49.297Z,10.40
2018-03-11T16:24:28.381Z,10.30
2018-03-11T16:26:45.261Z,10.30
2018-03-11T16:29:12.710Z,10.30
2018-03-11T16:31:40.164Z,10.30
2018-03-11T16:34:07.621Z,10.30
2018-03-11T16:36:35.095Z,10.30
2018-03-11T16:39:02.535Z,10.20
2018-03-11T16:41:29.992Z,10.20
2018-03-11T16:43:57.448Z,10.20
2018-03-11T16:46:24.944Z,10.10
2018-03-11T16:48:52.495Z,10.10
2018-03-11T16:51:19.943Z,10.10
2018-03-11T16:53:47.394Z,10.00
2018-03-11T16:56:20.728Z,10.00
2018-03-11T16:58:48.941Z,9.90
2018-03-11T17:01:16.429Z,9.90
2018-03-11T17:03:51.149Z,9.90
2018-03-11T17:06:18.597Z,9.90
2018-03-11T17:08:46.066Z,9.90
2018-03-11T17:11:13.517Z,9.80
2018-03-11T17:13:40.960Z,9.80
2018-03-11T17:16:08.405Z,9.80
2018-03-11T17:18:35.864Z,9.80
2018-03-11T17:21:03.309Z,9.70
2018-03-11T17:23:30.760Z,9.70
2018-03-11T17:25:58.215Z,9.70
2018-03-11T17:28:26.437Z,9.70
2018-03-11T17:30:53.892Z,9.60
2018-03-11T17:33:21.353Z,9.60
2018-03-11T17:35:48.828Z,9.60
2018-03-11T17:38:16.296Z,9.60
2018-03-11T17:40:44.833Z,9.60
2018-03-11T17:43:12.296Z,9.50
2018-03-11T17:45:39.771Z,9.60
2018-03-11T17:48:07.208Z,9.50
2018-03-11T17:50:34.654Z,9.50
2018-03-11T17:53:02.132Z,9.50
2018-03-11T17:55:35.544Z,9.50
2018-03-11T17:58:03.024Z,9.50
2018-03-11T18:00:30.464Z,9.40
2018-03-11T18:02:57.935Z,9.40
2018-03-11T18:05:25.486Z,9.40
2018-03-11T18:07:52.936Z,9.40
2018-03-11T18:10:20.404Z,9.40
2018-03-11T18:12:47.870Z,9.40
2018-03-11T18:15:16.089Z,9.30
2018-03-11T18:17:43.642Z,9.40
2018-03-11T18:20:11.088Z,9.30
2018-03-11T18:22:38.592Z,9.30
2018-03-11T18:25:06.066Z,9.30
2018-03-11T18:27:33.517Z,9.30
2018-03-11T18:30:00.970Z,9.30
2018-03-11T18:32:28.417Z,9.30
2018-03-11T18:34:55.872Z,9.20
2018-03-11T18:37:23.353Z,9.20
2018-03-11T18:39:50.781Z,9.20
2018-03-11T18:42:18.215Z,9.10
2018-03-11T18:44:45.677Z,9.10
2018-03-11T18:47:13.134Z,9.10
2018-03-11T18:49:40.639Z,9.00
2018-03-11T18:52:11.996Z,9.00
2018-03-11T18:54:39.455Z,9.00
2018-03-11T18:57:07.022Z,9.00
2018-03-11T18:59:34.435Z,9.00
2018-03-11T19:02:01.899Z,8.90
2018-03-11T19:04:29.344Z,8.90
2018-03-11T19:06:56.811Z,8.90
2018-03-11T19:09:24.256Z,8.80
2018-03-11T19:11:51.715Z,8.80
2018-03-11T19:14:19.161Z,8.80
2018-03-11T19:16:46.616Z,8.80
2018-03-11T19:19:14.071Z,8.80
2018-03-11T19:21:41.545Z,8.80
2018-03-11T19:24:08.989Z,8.80
2018-03-11T19:26:36.440Z,8.80
2018-03-11T19:29:03.937Z,8.80
2018-03-11T19:31:31.403Z,8.80
2018-03-11T19:33:58.853Z,8.80
2018-03-11T19:36:26.324Z,8.80
2018-03-11T19:38:53.770Z,8.70
2018-03-11T19:41:21.237Z,8.70
2018-03-11T19:43:48.684Z,8.70
2018-03-11T19:46:16.145Z,8.70
2018-03-11T19:48:43.591Z,8.70
2018-03-11T19:51:11.040Z,8.70
2018-03-11T19:53:38.497Z,8.70
2018-03-11T19:56:05.980Z,8.70
2018-03-11T19:58:33.404Z,8.70
2018-03-11T20:01:00.880Z,8.70
2018-03-11T20:03:28.333Z,8.60
2018-03-11T20:05:55.827Z,8.60
2018-03-11T20:08:24.063Z,8.60
2018-03-11T20:10:51.519Z,8.60
2018-03-11T20:13:18.967Z,8.60
2018-03-11T20:15:47.757Z,8.60
2018-03-11T20:18:15.205Z,8.60
2018-03-11T20:20:42.669Z,8.60
2018-03-11T20:23:10.123Z,8.60
2018-03-11T20:25:37.584Z,8.60
2018-03-11T20:28:05.044Z,8.60
2018-03-11T20:30:32.489Z,8.50
2018-03-11T20:32:59.940Z,8.50
2018-03-11T20:35:27.492Z,8.50
2018-03-11T20:37:54.980Z,8.50
2018-03-11T20:40:22.459Z,8.40
2018-03-11T20:42:49.891Z,8.40
2018-03-11T20:45:17.369Z,8.40
2018-03-11T20:47:44.826Z,8.40
2018-03-11T20:50:13.049Z,8.40
2018-03-11T20:52:40.518Z,8.30
2018-03-11T20:55:07.965Z,8.40
2018-03-11T20:57:35.424Z,8.40
2018-03-11T21:00:03.713Z,8.40
2018-03-11T21:02:31.171Z,8.40
2018-03-11T21:04:58.632Z,8.40
2018-03-11T21:07:26.084Z,8.40
2018-03-11T21:09:53.532Z,8.40
2018-03-11T21:12:21.066Z,8.40
2018-03-11T21:14:48.520Z,8.40
2018-03-11T21:17:16.746Z,8.40
2018-03-11T21:19:44.219Z,8.40
2018-03-11T21:22:11.677Z,8.40
2018-03-11T21:24:40.650Z,8.40
2018-03-11T21:27:08.092Z,8.40
2018-03-11T21:29:35.555Z,8.40
2018-03-11T21:32:02.996Z,8.40
2018-03-11T21:34:30.459Z,8.40
2018-03-11T21:36:57.949Z,8.40
2018-03-11T21:39:25.433Z,8.40
2018-03-11T21:41:52.892Z,8.40
2018-03-11T21:44:21.779Z,8.30
2018-03-11T21:46:49.237Z,8.40
2018-03-11T21:49:17.475Z,8.30
2018-03-11T21:51:44.934Z,8.30
2018-03-11T21:54:12.410Z,8.30
2018-03-11T21:56:39.881Z,8.30
2018-03-11T21:59:07.344Z,8.30
2018-03-11T22:01:35.556Z,8.20
2018-03-11T22:04:03.017Z,8.20
2018-03-11T22:06:30.467Z,8.20
2018-03-11T22:08:57.925Z,8.20
2018-03-11T22:11:25.376Z,8.20
2018-03-11T22:13:52.837Z,8.10
2018-03-11T22:16:20.291Z,8.20
2018-03-11T22:18:47.767Z,8.10
2018-03-11T22:21:15.227Z,8.10
2018-03-11T22:23:42.684Z,8.10
2018-03-11T22:26:10.128Z,8.10
2018-03-11T22:28:37.585Z,8.10
2018-03-11T22:31:05.032Z,8.10
2018-03-11T22:33:32.507Z,8.10
2018-03-11T22:35:59.954Z,8.10
2018-03-11T22:38:27.404Z,8.00
2018-03-11T22:40:54.859Z,8.00
2018-03-11T22:43:22.304Z,8.00
2018-03-11T22:45:50.525Z,8.00
2018-03-11T22:48:17.997Z,8.00
2018-03-11T22:50:45.452Z,8.00
2018-03-11T22:53:12.914Z,8.00
2018-03-11T22:55:40.369Z,8.00
2018-03-11T22:58:07.829Z,8.00
2018-03-11T23:00:35.281Z,8.00
2018-03-11T23:03:02.728Z,7.90
2018-03-11T23:05:30.179Z,7.90
2018-03-11T23:07:57.632Z,7.90
2018-03-11T23:10:25.102Z,7.90
2018-03-11T23:12:52.556Z,7.90
2018-03-11T23:15:20.021Z,7.90
2018-03-11T23:17:47.476Z,7.90
2018-03-11T23:20:14.933Z,7.90
2018-03-11T23:22:42.383Z,7.90
2018-03-11T23:25:09.858Z,7.90
2018-03-11T23:27:37.336Z,7.90
2018-03-11T23:30:05.559Z,7.90
2018-03-11T23:32:33.019Z,7.90
2018-03-11T23:35:00.489Z,7.90
2018-03-11T23:37:27.928Z,7.90
2018-03-11T23:39:55.369Z,8.00
2018-03-11T23:42:22.825Z,7.90
2018-03-11T23:44:50.276Z,7.90
2018-03-11T23:47:17.739Z,7.90
2018-03-11T23:49:45.183Z,7.90
2018-03-11T23:52:13.407Z,8.00
2018-03-11T23:54:40.844Z,7.90
2018-03-11T23:57:08.313Z,8.00
2018-03-11T23:59:35.766Z,7.90
